Time;durP1;ratioP1;P1;durP2;ratioP2;P2;SDS_P1;SDS_P2;PMS_P1;PMS_P2;Temp;Humidity;BMP_temperature;BMP_pressure;BME280_temperature;BME280_humidity;BME280_pressure;Samples;Min_cycle;Max_cycle;Signal;HPM_P1;HPM_P2
2024/02/14 00:02:17;;;;;;;5.30;3.00;;;;;;;2.67;74.65;97102.48;108534;1274;22521;-72
2024/02/14 00:04:48;;;;;;;6.20;3.30;;;;;;;2.69;74.47;97107.80;108478;1274;22532;-72
2024/02/14 00:07:19;;;;;;;5.00;3.10;;;;;;;2.67;74.47;97107.48;108544;1274;22599;-72
2024/02/14 00:09:50;;;;;;;6.90;2.70;;;;;;;2.68;74.29;97106.32;108613;1274;22746;-72
2024/02/14 00:12:22;;;;;;;5.90;3.20;;;;;;;2.69;74.39;97110.37;108590;1274;24502;-72
2024/02/14 00:14:53;;;;;;;5.70;3.10;;;;;;;2.68;74.22;97108.58;108513;1267;22962;-72
2024/02/14 00:17:25;;;;;;;4.70;3.00;;;;;;;2.63;74.22;97111.90;108578;1274;22545;-72
2024/02/14 00:19:56;;;;;;;5.90;2.60;;;;;;;2.63;74.28;97113.52;108605;1267;22531;-72
2024/02/14 00:22:27;;;;;;;5.60;3.00;;;;;;;2.64;74.29;97114.79;108540;1273;22525;-71
2024/02/14 00:24:58;;;;;;;6.00;3.50;;;;;;;2.67;74.18;97114.29;108529;1270;22543;-72
2024/02/14 00:27:30;;;;;;;6.30;3.40;;;;;;;2.70;74.30;97114.84;108579;1274;22566;-72
2024/02/14 00:30:03;;;;;;;4.00;2.80;;;;;;;2.73;74.39;97115.17;108523;1274;25291;-72
2024/02/14 00:32:34;;;;;;;6.60;3.50;;;;;;;2.70;74.52;97117.58;108555;1271;22528;-72
2024/02/14 00:35:05;;;;;;;5.00;2.80;;;;;;;2.56;74.42;97119.27;108577;1267;22531;-71
2024/02/14 00:37:37;;;;;;;6.40;3.60;;;;;;;2.48;74.47;97125.40;108557;1274;22533;-71
2024/02/14 00:40:11;;;;;;;7.80;3.40;;;;;;;2.51;74.49;97127.73;108542;1274;23367;-72
2024/02/14 00:42:42;;;;;;;6.40;3.70;;;;;;;2.52;74.68;97131.25;108629;1267;23018;-71
2024/02/14 00:45:13;;;;;;;5.70;3.10;;;;;;;2.48;74.62;97132.40;108574;1274;23194;-71
2024/02/14 00:47:44;;;;;;;8.40;3.50;;;;;;;2.48;74.74;97132.16;108589;1274;22538;-72
2024/02/14 00:50:16;;;;;;;7.90;3.10;;;;;;;2.38;74.75;97129.48;108523;1267;22533;-72
2024/02/14 00:52:47;;;;;;;6.00;3.60;;;;;;;2.32;74.95;97131.92;108579;1274;22553;-72
2024/02/14 00:55:18;;;;;;;6.90;3.30;;;;;;;2.29;75.03;97134.16;108556;1274;25251;-72
2024/02/14 00:57:49;;;;;;;6.60;3.20;;;;;;;2.23;75.24;97134.48;108526;1274;22546;-72
2024/02/14 01:00:20;;;;;;;4.90;3.00;;;;;;;2.19;75.33;97138.29;108534;1274;23316;-72
2024/02/14 01:02:51;;;;;;;6.30;2.60;;;;;;;2.20;75.25;97136.42;108563;1274;22562;-72
2024/02/14 01:05:24;;;;;;;6.80;3.20;;;;;;;2.22;75.42;97135.61;108517;1274;22635;-71
2024/02/14 01:07:55;;;;;;;7.70;3.20;;;;;;;2.24;75.43;97136.17;108446;1274;22538;-71
2024/02/14 01:10:26;;;;;;;6.80;3.20;;;;;;;2.29;75.41;97135.70;108519;1274;22544;-72
2024/02/14 01:12:57;;;;;;;5.80;3.00;;;;;;;2.26;75.59;97135.32;108505;1269;22642;-72
2024/02/14 01:15:28;;;;;;;5.90;3.10;;;;;;;2.21;75.54;97135.06;108545;1275;23201;-72
2024/02/14 01:17:59;;;;;;;6.40;2.80;;;;;;;2.19;75.57;97136.45;108487;1275;23176;-72
2024/02/14 01:20:30;;;;;;;7.50;3.80;;;;;;;2.18;75.58;97136.37;108471;1267;22545;-72
2024/02/14 01:23:02;;;;;;;6.90;3.40;;;;;;;2.21;75.85;97134.78;108535;1267;22553;-72
2024/02/14 01:25:33;;;;;;;6.00;3.40;;;;;;;2.21;75.96;97133.33;108557;1274;22546;-71
2024/02/14 01:28:05;;;;;;;5.70;3.20;;;;;;;2.15;75.84;97133.98;108563;1272;22531;-72
2024/02/14 01:30:36;;;;;;;5.60;2.70;;;;;;;2.08;75.81;97135.27;108576;1270;25310;-71
2024/02/14 01:33:07;;;;;;;6.90;3.00;;;;;;;2.03;75.71;97134.05;108567;1274;24480;-72
2024/02/14 01:35:38;;;;;;;4.90;2.50;;;;;;;2.06;75.74;97132.27;108536;1274;22533;-72
2024/02/14 01:38:09;;;;;;;5.90;2.90;;;;;;;2.05;75.68;97132.48;108551;1266;23146;-72
2024/02/14 01:40:43;;;;;;;6.40;3.00;;;;;;;1.96;75.71;97136.63;108562;1274;22541;-71
2024/02/14 01:43:15;;;;;;;4.30;2.70;;;;;;;1.96;75.88;97136.30;108481;1274;22528;-72
2024/02/14 01:45:46;;;;;;;5.50;3.20;;;;;;;2.00;76.06;97135.73;108474;1274;22558;-71
2024/02/14 01:48:18;;;;;;;5.40;3.40;;;;;;;2.07;76.14;97134.54;108481;1268;22994;-72
2024/02/14 01:50:49;;;;;;;6.50;3.90;;;;;;;2.14;76.26;97128.88;108492;1274;22525;-71
2024/02/14 01:53:20;;;;;;;5.90;3.30;;;;;;;2.13;76.18;97131.02;108509;1274;22547;-71
2024/02/14 01:55:51;;;;;;;6.60;3.10;;;;;;;2.11;76.29;97131.40;108485;1274;24503;-72
2024/02/14 01:58:22;;;;;;;7.80;3.40;;;;;;;2.03;76.32;97126.95;108551;1274;22545;-72
2024/02/14 02:00:56;;;;;;;7.00;3.70;;;;;;;1.96;76.35;97128.02;108496;1274;22529;-72
2024/02/14 02:03:28;;;;;;;5.30;3.50;;;;;;;1.98;76.63;97126.61;108545;1274;23278;-71
2024/02/14 02:05:59;;;;;;;6.00;2.90;;;;;;;1.95;76.77;97129.84;108502;1274;22550;-72
2024/02/14 02:08:30;;;;;;;5.40;2.70;;;;;;;1.88;77.02;97128.77;108496;1270;22543;-71
2024/02/14 02:11:01;;;;;;;6.70;3.20;;;;;;;1.78;77.17;97130.77;108503;1267;22521;-72
2024/02/14 02:13:32;;;;;;;6.50;2.80;;;;;;;1.70;77.34;97128.38;108483;1274;22547;-72
2024/02/14 02:16:05;;;;;;;4.40;2.50;;;;;;;1.64;77.59;97128.44;108476;1274;24140;-72
2024/02/14 02:18:37;;;;;;;7.30;3.20;;;;;;;1.62;77.81;97128.45;108574;1266;22552;-72
2024/02/14 02:21:08;;;;;;;6.00;3.10;;;;;;;1.61;78.10;97130.58;108747;1267;22703;-72
2024/02/14 02:23:40;;;;;;;5.40;3.10;;;;;;;1.61;78.27;97132.15;108530;1274;22534;-71
2024/02/14 02:26:12;;;;;;;7.00;3.40;;;;;;;1.65;78.37;97134.10;108618;1274;24223;-72
2024/02/14 02:28:43;;;;;;;6.60;4.40;;;;;;;1.73;78.35;97133.34;108528;1274;22532;-72
2024/02/14 02:31:14;;;;;;;6.80;4.30;;;;;;;1.86;78.39;97134.89;108506;1274;22633;-71
2024/02/14 02:33:45;;;;;;;4.80;3.10;;;;;;;1.88;78.29;97135.89;108493;1267;22578;-71
2024/02/14 02:36:16;;;;;;;7.50;4.00;;;;;;;1.88;78.40;97130.45;108478;1267;22535;-72
2024/02/14 02:38:47;;;;;;;8.40;3.90;;;;;;;1.89;78.40;97130.17;108513;1274;22614;-72
2024/02/14 02:41:19;;;;;;;9.10;4.30;;;;;;;1.90;78.38;97130.11;108590;1270;22660;-72
2024/02/14 02:43:50;;;;;;;6.40;3.70;;;;;;;1.91;78.34;97136.42;108456;1274;22543;-72
2024/02/14 02:46:23;;;;;;;6.70;3.80;;;;;;;1.91;78.35;97132.91;108551;1274;22536;-71
2024/02/14 02:48:54;;;;;;;8.70;4.70;;;;;;;1.92;78.37;97134.60;108543;1267;22522;-72
2024/02/14 02:51:27;;;;;;;7.70;3.90;;;;;;;1.95;78.42;97131.72;108559;1274;25258;-71
2024/02/14 02:53:58;;;;;;;9.30;4.30;;;;;;;1.96;78.38;97136.91;108518;1274;24367;-71
2024/02/14 02:56:29;;;;;;;6.20;3.50;;;;;;;1.95;78.36;97137.60;108605;1274;22564;-72
2024/02/14 02:59:03;;;;;;;9.60;4.50;;;;;;;1.97;78.32;97135.49;108570;1274;22520;-72
2024/02/14 03:01:40;;;;;;;5.80;3.90;;;;;;;1.98;78.45;97137.23;108492;1274;25662;-72
2024/02/14 03:04:13;;;;;;;10.30;4.30;;;;;;;1.96;78.37;97140.08;108565;1273;22559;-71
2024/02/14 03:06:44;;;;;;;8.30;4.10;;;;;;;1.96;78.48;97141.38;108583;1274;23445;-71
2024/02/14 03:09:15;;;;;;;7.40;4.40;;;;;;;1.95;78.52;97140.89;108570;1274;24244;-71
2024/02/14 03:11:48;;;;;;;8.20;4.50;;;;;;;1.92;78.47;97142.66;108600;1270;25414;-72
2024/02/14 03:14:19;;;;;;;7.00;4.10;;;;;;;1.89;78.59;97145.13;108618;1266;22566;-72
2024/02/14 03:16:50;;;;;;;7.10;3.50;;;;;;;1.86;78.65;97148.64;108575;1274;25927;-72
2024/02/14 03:19:22;;;;;;;5.60;3.00;;;;;;;1.82;78.59;97150.75;108581;1270;22521;-72
2024/02/14 03:21:53;;;;;;;7.20;4.10;;;;;;;1.76;78.74;97152.84;108608;1274;22526;-71
2024/02/14 03:24:25;;;;;;;7.90;4.20;;;;;;;1.72;78.72;97152.81;108572;1273;26194;-72
2024/02/14 03:26:56;;;;;;;7.10;3.70;;;;;;;1.74;78.85;97154.41;108578;1269;22601;-71
2024/02/14 03:29:27;;;;;;;6.60;3.40;;;;;;;1.75;79.03;97154.08;108559;1274;22527;-72
2024/02/14 03:32:01;;;;;;;7.40;4.20;;;;;;;1.71;79.24;97155.77;108560;1274;22547;-72
2024/02/14 03:34:35;;;;;;;6.60;3.90;;;;;;;1.70;79.19;97158.50;108561;1274;22543;-72
2024/02/14 03:37:06;;;;;;;7.60;4.00;;;;;;;1.72;79.28;97155.63;108591;1274;25100;-71
2024/02/14 03:39:38;;;;;;;8.00;4.30;;;;;;;1.71;79.44;97160.42;108581;1274;23007;-72
2024/02/14 03:42:09;;;;;;;8.60;4.50;;;;;;;1.72;79.48;97159.94;108565;1274;22536;-72
2024/02/14 03:44:40;;;;;;;7.20;3.90;;;;;;;1.75;79.44;97161.13;108497;1274;23009;-71
2024/02/14 03:47:13;;;;;;;6.80;4.10;;;;;;;1.80;79.42;97161.98;108573;1269;27588;-72
2024/02/14 03:49:44;;;;;;;7.60;4.60;;;;;;;1.83;79.47;97161.08;108541;1274;22527;-72
2024/02/14 03:52:15;;;;;;;8.80;4.10;;;;;;;1.84;79.45;97164.42;108569;1274;22546;-72
2024/02/14 03:54:46;;;;;;;9.10;4.60;;;;;;;1.87;79.40;97167.22;108540;1274;22634;-71
2024/02/14 03:57:17;;;;;;;8.90;4.30;;;;;;;1.87;79.50;97169.39;108575;1274;22713;-72
2024/02/14 03:59:49;;;;;;;9.30;4.50;;;;;;;1.90;79.28;97169.78;108552;1274;25387;-72
2024/02/14 04:02:20;;;;;;;6.90;4.30;;;;;;;1.93;79.27;97168.10;108592;1272;22534;-72
2024/02/14 04:04:51;;;;;;;6.80;3.70;;;;;;;1.94;79.25;97168.09;108544;1270;22541;-72
2024/02/14 04:07:22;;;;;;;6.70;3.40;;;;;;;1.93;79.39;97169.30;108558;1259;23842;-72
2024/02/14 04:09:53;;;;;;;7.30;3.90;;;;;;;1.93;79.34;97166.17;108597;1274;24043;-72
2024/02/14 04:12:24;;;;;;;5.90;3.30;;;;;;;1.96;79.36;97171.30;108589;1266;22528;-71
2024/02/14 04:14:55;;;;;;;5.80;3.10;;;;;;;1.91;79.42;97172.70;108521;1269;22610;-71
2024/02/14 04:17:26;;;;;;;6.00;3.20;;;;;;;1.86;79.48;97175.52;108593;1274;24212;-72
2024/02/14 04:19:57;;;;;;;6.00;2.90;;;;;;;1.85;79.46;97178.05;108546;1274;22538;-72
2024/02/14 04:22:28;;;;;;;6.50;3.60;;;;;;;1.85;79.42;97177.37;108520;1267;25405;-72
2024/02/14 04:24:59;;;;;;;7.20;3.10;;;;;;;1.78;79.82;97174.65;108530;1274;22547;-71
2024/02/14 04:27:31;;;;;;;6.60;2.80;;;;;;;1.71;79.98;97174.20;108528;1274;22538;-72
2024/02/14 04:30:03;;;;;;;5.70;3.10;;;;;;;1.69;79.95;97176.23;108634;1274;22613;-72
2024/02/14 04:32:34;;;;;;;8.30;3.60;;;;;;;1.68;80.25;97178.70;108558;1274;22587;-72
2024/02/14 04:35:05;;;;;;;6.60;3.40;;;;;;;1.68;80.27;97178.90;108574;1274;22518;-72
2024/02/14 04:37:36;;;;;;;6.30;3.00;;;;;;;1.71;80.43;97179.77;108503;1274;22654;-72
2024/02/14 04:40:09;;;;;;;6.10;3.20;;;;;;;1.77;80.59;97180.52;108587;1269;23236;-72
2024/02/14 04:42:40;;;;;;;8.40;3.60;;;;;;;1.82;80.46;97180.73;108568;1274;23861;-72
2024/02/14 04:45:11;;;;;;;6.30;3.90;;;;;;;1.84;80.45;97181.36;108553;1274;22575;-72
2024/02/14 04:47:43;;;;;;;7.60;4.00;;;;;;;1.87;80.25;97184.44;108575;1274;22544;-72
2024/02/14 04:50:14;;;;;;;6.80;3.10;;;;;;;1.89;80.17;97187.32;108501;1274;22615;-72
2024/02/14 04:52:45;;;;;;;6.50;3.20;;;;;;;1.89;80.09;97187.00;108509;1267;25379;-72
2024/02/14 04:55:16;;;;;;;6.40;3.40;;;;;;;1.87;80.06;97192.23;108530;1274;22552;-72
2024/02/14 04:57:49;;;;;;;5.80;3.60;;;;;;;1.88;80.15;97189.13;108589;1274;22552;-72
2024/02/14 05:00:24;;;;;;;6.60;3.10;;;;;;;1.91;80.04;97187.70;108557;1274;24218;-72
2024/02/14 05:02:54;;;;;;;5.60;2.80;;;;;;;1.88;80.20;97189.48;108599;1274;26011;-71
2024/02/14 05:05:26;;;;;;;5.60;3.40;;;;;;;1.82;80.25;97187.18;108572;1274;25330;-72
2024/02/14 05:07:58;;;;;;;6.30;3.40;;;;;;;1.77;80.48;97185.88;108563;1274;22576;-72
2024/02/14 05:10:29;;;;;;;7.10;3.60;;;;;;;1.75;80.72;97188.83;108578;1274;24229;-72
2024/02/14 05:13:01;;;;;;;7.00;3.60;;;;;;;1.76;81.29;97190.55;108572;1274;22546;-72
2024/02/14 05:15:32;;;;;;;7.50;4.50;;;;;;;1.81;81.22;97187.91;108603;1274;24235;-72
2024/02/14 05:18:05;;;;;;;6.30;3.50;;;;;;;1.83;81.08;97192.77;108583;1274;23314;-72
2024/02/14 05:20:38;;;;;;;6.20;3.90;;;;;;;1.83;81.19;97190.52;108581;1274;25262;-72
2024/02/14 05:23:11;;;;;;;6.20;4.10;;;;;;;1.83;81.22;97191.60;108605;1268;22524;-72
2024/02/14 05:25:43;;;;;;;9.20;4.00;;;;;;;1.81;81.09;97190.61;108526;1269;24380;-72
2024/02/14 05:28:14;;;;;;;17.90;8.80;;;;;;;1.72;80.89;97193.55;108606;1274;22544;-72
2024/02/14 05:30:45;;;;;;;26.90;12.50;;;;;;;1.63;81.05;97197.39;108537;1269;26480;-71
2024/02/14 05:33:18;;;;;;;16.40;7.50;;;;;;;1.54;81.07;97198.87;108550;1274;22528;-72
2024/02/14 05:35:49;;;;;;;8.80;4.60;;;;;;;1.48;81.35;97198.61;108552;1274;22524;-71
2024/02/14 05:38:20;;;;;;;6.10;2.90;;;;;;;1.46;81.50;97194.37;108515;1274;22766;-72
2024/02/14 05:40:51;;;;;;;4.70;2.80;;;;;;;1.47;81.63;97202.08;108584;1274;25247;-72
2024/02/14 05:43:24;;;;;;;4.40;2.20;;;;;;;1.45;81.62;97206.98;108550;1273;22664;-72
2024/02/14 05:45:55;;;;;;;4.20;1.90;;;;;;;1.45;81.58;97209.40;108583;1267;22651;-72
2024/02/14 05:48:26;;;;;;;3.00;1.90;;;;;;;1.51;81.69;97207.55;108504;1274;22618;-72
2024/02/14 05:50:57;;;;;;;3.60;1.90;;;;;;;1.54;81.46;97214.63;108561;1274;22531;-72
2024/02/14 05:53:28;;;;;;;3.80;1.90;;;;;;;1.54;81.39;97215.59;108456;1274;22560;-72
2024/02/14 05:55:59;;;;;;;3.30;2.00;;;;;;;1.52;81.54;97208.20;108558;1268;22530;-72
2024/02/14 05:58:30;;;;;;;2.50;1.70;;;;;;;1.53;81.26;97208.20;108517;1273;25294;-72
2024/02/14 06:01:01;;;;;;;4.30;2.00;;;;;;;1.61;81.31;97210.42;108583;1274;23806;-72
2024/02/14 06:03:32;;;;;;;3.30;2.10;;;;;;;1.68;81.09;97206.38;108511;1274;22531;-72
2024/02/14 06:06:03;;;;;;;2.80;1.70;;;;;;;1.66;80.96;97211.80;108530;1267;22547;-71
2024/02/14 06:08:35;;;;;;;2.30;1.60;;;;;;;1.61;80.95;97213.73;108519;1269;25336;-72
2024/02/14 06:11:06;;;;;;;4.20;1.90;;;;;;;1.57;81.16;97221.73;108615;1274;22573;-72
2024/02/14 06:13:37;;;;;;;5.50;2.40;;;;;;;1.55;81.10;97223.92;108517;1274;25895;-72
2024/02/14 06:16:11;;;;;;;5.80;2.50;;;;;;;1.54;81.28;97226.73;108519;1270;22565;-72
2024/02/14 06:18:42;;;;;;;7.60;4.20;;;;;;;1.52;81.32;97227.73;108577;1266;22518;-72
2024/02/14 06:21:13;;;;;;;8.30;3.90;;;;;;;1.51;81.31;97227.62;108520;1274;26433;-72
2024/02/14 06:23:46;;;;;;;10.50;5.10;;;;;;;1.54;81.20;97223.22;108542;1274;25288;-72
2024/02/14 06:26:18;;;;;;;3.90;2.30;;;;;;;1.59;81.44;97222.39;108395;1269;168889;-72
2024/02/14 06:28:54;;;;;;;6.40;2.90;;;;;;;1.60;81.47;97230.83;108553;1266;24215;-72
2024/02/14 06:31:25;;;;;;;6.40;3.10;;;;;;;1.62;81.44;97226.10;108501;1274;22595;-72
2024/02/14 06:33:56;;;;;;;6.20;3.30;;;;;;;1.65;81.42;97228.26;108483;1267;22576;-72
2024/02/14 06:36:27;;;;;;;3.80;2.10;;;;;;;1.68;81.31;97227.89;108588;1266;22653;-72
2024/02/14 06:38:58;;;;;;;3.00;1.40;;;;;;;1.69;81.46;97229.21;108588;1273;22520;-72
2024/02/14 06:41:31;;;;;;;2.20;1.20;;;;;;;1.73;81.26;97227.77;108517;1269;22580;-73
2024/02/14 06:44:02;;;;;;;2.30;1.50;;;;;;;1.83;81.14;97229.38;108682;1269;22537;-72
2024/02/14 06:46:33;;;;;;;3.90;1.80;;;;;;;1.94;81.41;97228.84;108614;1268;22554;-72
2024/02/14 06:49:04;;;;;;;2.40;1.00;;;;;;;1.98;81.31;97230.89;108598;1274;25532;-72
2024/02/14 06:51:35;;;;;;;3.60;1.60;;;;;;;1.99;81.07;97222.39;108616;1269;22524;-72
2024/02/14 06:54:07;;;;;;;3.40;1.50;;;;;;;2.05;81.05;97229.79;108646;1269;22550;-72
2024/02/14 06:56:39;;;;;;;4.60;1.70;;;;;;;2.10;81.05;97226.22;108586;1266;22597;-73
2024/02/14 06:59:10;;;;;;;9.40;4.30;;;;;;;2.18;81.00;97228.92;108468;1269;22543;-72
2024/02/14 07:01:41;;;;;;;11.80;5.20;;;;;;;2.40;80.65;97233.60;108456;1269;25346;-72
2024/02/14 07:04:12;;;;;;;9.70;4.10;;;;;;;2.51;80.27;97233.03;108565;1267;22516;-72
2024/02/14 07:06:43;;;;;;;9.70;4.30;;;;;;;2.62;80.09;97234.41;108649;1269;22564;-72
2024/02/14 07:09:14;;;;;;;8.00;4.10;;;;;;;3.31;80.23;97233.95;108608;1269;22531;-72
2024/02/14 07:11:45;;;;;;;9.60;4.50;;;;;;;4.44;79.66;97227.33;108518;1261;22657;-72
2024/02/14 07:14:16;;;;;;;9.10;4.80;;;;;;;5.44;78.71;97224.39;108511;1269;23240;-72
2024/02/14 07:16:47;;;;;;;5.90;2.90;;;;;;;6.08;77.42;97226.63;108666;1268;22534;-73
2024/02/14 07:19:18;;;;;;;6.10;2.70;;;;;;;6.53;76.00;97229.37;108586;1274;22551;-72
2024/02/14 07:21:49;;;;;;;4.70;1.90;;;;;;;6.82;75.06;97228.98;108645;1273;22650;-72
2024/02/14 07:24:20;;;;;;;5.00;2.60;;;;;;;6.76;73.90;97230.14;108574;1274;22534;-72
2024/02/14 07:26:51;;;;;;;5.00;2.70;;;;;;;7.05;73.25;97226.66;108630;1274;22574;-73
2024/02/14 07:29:22;;;;;;;6.00;3.20;;;;;;;7.57;72.31;97226.61;108625;1274;22574;-72
2024/02/14 07:31:54;;;;;;;6.30;3.90;;;;;;;8.20;71.68;97224.86;108639;1268;22531;-73
2024/02/14 07:34:26;;;;;;;8.40;4.50;;;;;;;9.03;70.99;97224.19;108624;1267;22640;-73
2024/02/14 07:36:56;;;;;;;9.00;4.90;;;;;;;9.99;70.92;97223.06;108647;1270;22576;-72
2024/02/14 07:39:27;;;;;;;8.20;4.70;;;;;;;11.07;70.83;97221.32;108632;1267;22531;-73
2024/02/14 07:41:58;;;;;;;6.80;3.90;;;;;;;12.19;70.05;97220.06;108644;1270;22518;-73
2024/02/14 07:44:30;;;;;;;3.00;1.90;;;;;;;13.04;67.92;97219.45;108663;1259;24086;-73
2024/02/14 07:47:01;;;;;;;3.10;1.10;;;;;;;13.33;65.64;97218.59;108643;1274;22528;-73
2024/02/14 07:49:31;;;;;;;3.10;1.10;;;;;;;12.70;63.07;97219.65;108659;1274;24414;-73
2024/02/14 07:52:02;;;;;;;2.00;0.70;;;;;;;12.60;62.72;97218.86;108703;1269;25494;-70
2024/02/14 07:54:33;;;;;;;2.40;0.80;;;;;;;11.98;60.02;97225.27;108594;1267;23861;-72
2024/02/14 07:57:05;;;;;;;1.80;0.70;;;;;;;11.19;58.14;97227.02;108654;1269;22523;-73
2024/02/14 07:59:36;;;;;;;3.40;1.20;;;;;;;11.22;58.91;97228.39;108621;1274;22661;-73
2024/02/14 09:06:08;;;;;;;4.30;0.90;;;;;;;9.29;48.80;97215.33;108473;1273;24381;-72
2024/02/14 09:08:40;;;;;;;2.00;1.10;;;;;;;9.24;50.11;97215.88;108499;1274;22571;-72
2024/02/14 09:11:12;;;;;;;2.20;0.90;;;;;;;8.82;48.53;97222.70;108656;1274;25393;-72
2024/02/14 09:13:43;;;;;;;2.80;1.20;;;;;;;8.32;48.88;97226.42;108602;1266;22553;-72
2024/02/14 09:16:15;;;;;;;1.70;1.00;;;;;;;8.02;49.47;97224.60;108603;1270;22547;-72
2024/02/14 09:18:47;;;;;;;2.20;1.50;;;;;;;7.76;49.98;97228.88;108492;1267;22547;-73
2024/02/14 09:21:19;;;;;;;1.90;1.00;;;;;;;7.73;50.73;97231.42;108615;1265;22612;-72
2024/02/14 09:23:51;;;;;;;2.60;1.30;;;;;;;7.89;51.52;97223.86;108507;1274;22522;-72
2024/02/14 09:26:23;;;;;;;2.80;1.00;;;;;;;8.07;51.65;97221.48;108613;1272;22555;-72
2024/02/14 09:28:54;;;;;;;2.20;0.90;;;;;;;7.89;50.80;97223.66;108594;1266;22514;-72
2024/02/14 09:31:25;;;;;;;2.80;1.10;;;;;;;7.51;50.32;97228.91;108459;1266;26581;-73
2024/02/14 09:33:57;;;;;;;2.70;1.50;;;;;;;7.26;50.94;97228.82;108585;1269;24199;-72
2024/02/14 09:36:29;;;;;;;3.80;1.50;;;;;;;7.19;51.48;97219.95;108644;1266;22520;-72
2024/02/14 09:39:05;;;;;;;1.90;1.30;;;;;;;7.35;52.39;97222.46;108670;1274;25418;-73
2024/02/14 09:41:41;;;;;;;2.80;1.30;;;;;;;7.50;52.40;97220.83;108652;1266;22554;-72
2024/02/14 09:44:12;;;;;;;2.50;1.40;;;;;;;7.65;52.95;97221.83;108578;1269;23306;-73
2024/02/14 09:46:43;;;;;;;3.80;1.60;;;;;;;7.78;52.72;97224.69;108273;1269;22552;-74
2024/02/14 09:49:17;;;;;;;2.20;1.40;;;;;;;7.58;52.57;97219.14;108420;1266;26809;-73
2024/02/14 09:51:50;;;;;;;4.40;1.80;;;;;;;7.53;53.28;97220.45;108537;1270;22663;-73
2024/02/14 09:54:21;;;;;;;3.20;1.40;;;;;;;7.80;53.42;97217.46;108642;1273;25271;-73
2024/02/14 09:56:54;;;;;;;3.10;1.40;;;;;;;7.93;53.36;97211.30;108571;1273;22630;-72
2024/02/14 09:59:29;;;;;;;2.30;1.70;;;;;;;7.96;53.49;97215.08;108594;1271;25406;-72
2024/02/14 10:01:59;;;;;;;2.70;1.40;;;;;;;7.95;52.99;97216.43;108695;1269;22534;-74
2024/02/14 10:04:31;;;;;;;2.40;1.40;;;;;;;7.89;53.28;97218.38;108628;1273;22814;-73
2024/02/14 10:07:02;;;;;;;3.60;1.30;;;;;;;8.04;53.56;97212.95;108635;1273;22536;-73
2024/02/14 10:09:40;;;;;;;2.70;1.50;;;;;;;8.08;52.72;97211.88;108616;1272;22526;-73
2024/02/14 10:12:12;;;;;;;2.30;1.40;;;;;;;7.68;52.53;97214.99;108546;1273;22554;-73
2024/02/14 10:14:43;;;;;;;3.90;1.50;;;;;;;7.64;53.13;97215.27;108554;1273;22527;-72
2024/02/14 10:17:20;;;;;;;4.30;1.60;;;;;;;7.72;53.14;97209.98;108644;1273;22953;-73
2024/02/14 10:20:05;;;;;;;3.60;1.90;;;;;;;7.84;53.19;97203.52;108681;1273;27633;-73
2024/02/14 10:22:40;;;;;;;4.40;1.90;;;;;;;8.17;53.80;97204.55;108503;1270;22524;-73
2024/02/14 10:25:12;;;;;;;4.10;1.60;;;;;;;8.35;53.37;97199.52;108575;1269;22722;-74
2024/02/14 10:27:47;;;;;;;2.70;1.50;;;;;;;8.18;53.18;97195.48;108309;1267;22543;-73
2024/02/14 10:30:23;;;;;;;4.40;1.70;;;;;;;8.37;53.45;97196.85;108526;1269;22592;-72
2024/02/14 10:32:57;;;;;;;3.90;1.80;;;;;;;8.63;53.48;97192.92;108438;1275;22551;-72
2024/02/14 10:35:34;;;;;;;3.00;1.40;;;;;;;8.70;52.63;97188.77;108549;1250;22564;-72
2024/02/14 10:38:06;;;;;;;2.70;1.70;;;;;;;8.60;52.33;97185.66;108667;1266;22563;-72
2024/02/14 10:40:38;;;;;;;3.50;1.70;;;;;;;8.46;52.18;97186.74;108635;1274;22579;-72
2024/02/14 10:43:10;;;;;;;3.40;1.80;;;;;;;8.46;52.95;97183.10;108646;1274;22526;-72
2024/02/14 10:45:42;;;;;;;3.50;1.70;;;;;;;8.54;52.90;97183.64;108648;1274;22531;-72
2024/02/14 10:48:16;;;;;;;5.10;2.00;;;;;;;8.37;52.40;97183.58;108489;1274;25245;-72
2024/02/14 10:50:50;;;;;;;3.90;1.90;;;;;;;8.43;53.10;97185.66;108617;1269;22941;-72
2024/02/14 10:53:23;;;;;;;3.00;1.70;;;;;;;8.57;53.00;97188.02;108656;1275;25253;-73
2024/02/14 10:55:59;;;;;;;3.50;2.20;;;;;;;8.58;52.47;97185.21;108578;1267;22531;-74
2024/02/14 10:58:32;;;;;;;4.10;1.80;;;;;;;8.63;52.70;97180.19;108594;1267;22554;-74
2024/02/14 11:01:04;;;;;;;3.80;2.00;;;;;;;8.59;51.59;97175.55;108721;1275;24906;-74
2024/02/14 11:03:36;;;;;;;4.40;2.10;;;;;;;8.29;51.25;97173.40;108585;1267;22531;-74
2024/02/14 11:06:16;;;;;;;5.40;2.20;;;;;;;8.34;52.32;97173.20;108530;1275;22554;-74
2024/02/14 11:09:07;;;;;;;4.90;2.30;;;;;;;8.56;52.59;97170.29;108589;1275;22983;-74
2024/02/14 11:11:38;;;;;;;3.50;1.90;;;;;;;8.54;52.18;97175.83;108577;1269;22531;-74
2024/02/14 11:14:15;;;;;;;4.60;2.50;;;;;;;8.49;52.24;97171.23;108567;1267;22527;-75
2024/02/14 11:16:49;;;;;;;5.00;2.20;;;;;;;8.33;51.50;97168.95;108551;1270;23263;-74
2024/02/14 11:19:22;;;;;;;4.80;2.60;;;;;;;8.38;52.09;97167.11;108550;1275;22533;-74
2024/02/14 11:22:01;;;;;;;4.30;1.90;;;;;;;8.38;52.19;97161.30;108401;1262;25421;-75
2024/02/14 11:24:37;;;;;;;4.50;2.00;;;;;;;8.42;52.28;97159.06;108467;1275;22582;-73
2024/02/14 11:27:14;;;;;;;3.60;2.00;;;;;;;8.61;52.81;97154.20;108478;1268;22575;-73
2024/02/14 11:29:54;;;;;;;3.50;2.30;;;;;;;8.82;52.89;97157.23;108586;1275;22543;-73
2024/02/14 11:32:28;;;;;;;4.40;1.90;;;;;;;8.81;52.51;97152.69;108563;1267;22537;-73
2024/02/14 11:34:59;;;;;;;4.70;2.80;;;;;;;8.69;52.20;97152.17;108547;1275;22636;-74
2024/02/14 11:37:34;;;;;;;4.20;1.90;;;;;;;8.64;52.47;97147.95;108502;1272;22535;-74
2024/02/14 11:40:11;;;;;;;3.80;2.10;;;;;;;8.54;52.17;97144.91;108559;1272;25431;-73
2024/02/14 11:42:42;;;;;;;3.10;2.00;;;;;;;8.56;52.49;97139.58;108571;1272;22534;-73
2024/02/14 11:45:13;;;;;;;4.10;1.90;;;;;;;8.52;52.21;97137.55;108556;1275;22526;-73
2024/02/14 11:47:46;;;;;;;4.40;2.20;;;;;;;8.35;51.34;97135.16;108539;1275;25304;-73
2024/02/14 11:50:18;;;;;;;4.20;2.10;;;;;;;8.24;51.91;97129.98;108582;1275;24220;-73
2024/02/14 11:52:50;;;;;;;4.10;1.70;;;;;;;8.32;51.83;97131.48;108582;1269;25336;-73
2024/02/14 11:55:32;;;;;;;4.00;1.60;;;;;;;8.20;51.50;97126.98;108556;1275;22580;-74
2024/02/14 11:58:09;;;;;;;6.10;1.90;;;;;;;8.11;51.65;97127.31;108547;1274;22527;-73
2024/02/14 12:00:44;;;;;;;5.00;2.10;;;;;;;8.23;51.80;97123.30;108584;1274;23880;-73
2024/02/14 12:03:21;;;;;;;3.30;1.60;;;;;;;8.37;51.95;97119.98;108630;1268;22528;-73
2024/02/14 12:05:56;;;;;;;4.20;1.70;;;;;;;8.52;52.15;97118.36;108651;1271;22532;-73
2024/02/14 12:08:28;;;;;;;6.40;1.60;;;;;;;8.67;52.18;97114.88;108633;1274;23366;-74
2024/02/14 12:10:59;;;;;;;3.40;1.50;;;;;;;8.72;51.96;97113.48;108695;1265;22551;-74
2024/02/14 12:13:32;;;;;;;2.70;1.60;;;;;;;8.87;52.00;97115.77;108641;1274;22574;-74
2024/02/14 12:16:03;;;;;;;3.80;1.70;;;;;;;8.93;51.71;97116.97;108646;1274;24496;-74
2024/02/14 12:18:35;;;;;;;2.70;1.40;;;;;;;8.98;51.77;97115.61;108585;1274;22542;-74
2024/02/14 12:21:12;;;;;;;3.10;1.50;;;;;;;9.07;51.42;97109.55;108653;1269;22583;-74
2024/02/14 12:23:44;;;;;;;3.30;1.50;;;;;;;9.19;51.44;97111.89;108674;1274;22542;-74
2024/02/14 12:26:19;;;;;;;2.90;1.70;;;;;;;9.31;51.20;97113.80;108672;1264;25362;-74
2024/02/14 12:28:54;;;;;;;3.50;1.70;;;;;;;9.34;50.66;97112.81;108636;1274;22539;-74
2024/02/14 12:31:27;;;;;;;3.90;2.00;;;;;;;9.42;50.82;97114.27;108639;1273;22544;-75
2024/02/14 12:34:01;;;;;;;3.60;1.60;;;;;;;9.49;50.49;97117.23;108655;1267;22688;-75
2024/02/14 12:36:33;;;;;;;3.70;1.70;;;;;;;9.37;49.98;97114.83;108625;1274;22551;-74
2024/02/14 12:39:06;;;;;;;2.50;1.70;;;;;;;9.23;50.25;97114.39;108641;1274;22535;-74
2024/02/14 12:41:39;;;;;;;5.10;2.10;;;;;;;9.40;50.31;97111.73;108622;1269;22544;-74
2024/02/14 12:44:11;;;;;;;3.40;1.70;;;;;;;9.51;50.15;97112.89;108542;1273;23036;-74
2024/02/14 12:46:44;;;;;;;2.30;1.70;;;;;;;9.61;49.77;97111.13;108506;1266;22577;-74
2024/02/14 12:49:18;;;;;;;2.10;1.30;;;;;;;9.54;49.38;97112.36;108664;1273;25245;-74
2024/02/14 12:51:49;;;;;;;2.30;1.50;;;;;;;9.45;48.90;97115.25;108600;1273;22540;-74
2024/02/14 12:54:20;;;;;;;3.10;1.50;;;;;;;9.54;49.23;97113.31;108636;1272;22550;-74
2024/02/14 12:56:52;;;;;;;2.00;1.50;;;;;;;9.73;49.44;97111.32;108676;1269;22565;-74
2024/02/14 12:59:23;;;;;;;2.80;1.70;;;;;;;9.87;49.43;97108.98;108575;1273;24229;-74
2024/02/14 13:01:54;;;;;;;3.10;1.70;;;;;;;9.99;49.52;97111.81;108455;1272;22523;-74